Countesthorpe, United Kingdom
Current Conditions -  °F | °C
As of 10:50 AM on Tuesday 21 Oct 2014 (Local Time) from EGBE Reporting Station
Scattered Clouds Scattered Clouds  
Wind Chill: 54°   Ceiling: Unl
Heat Index: 54°   Visibility: 6mi
Dew Point: 41°   Wind: 22mph
Humidity: 62%   Direction: 280°W
Pressure: 29.62"   Gusts: 37mph
Location:  52.55°N, 1.15°W
Report Text: EGBE 210950Z 28019G32KT 250V310 9999 SCT036 12/05 Q1003
Loading
Personal Weather Stations






























Interactive Weather Map
Tropical Storm Tracking
New forecast layout! Learn more

10-Day Weather Forecast

Advertisements
Track Severe Weather on mobile